Time;durP1;ratioP1;P1;durP2;ratioP2;P2;SDS_P1;SDS_P2;PMS_P1;PMS_P2;Temp;Humidity;BMP_temperature;BMP_pressure;BME280_temperature;BME280_humidity;BME280_pressure;Samples;Min_cycle;Max_cycle;Signal;HPM_P1;HPM_P2
2023/10/14 00:00:28;;;;;;;7.47;3.13;;;;;;;19.54;100.00;99493.09;5116181;28;20048;-79
2023/10/14 00:03:06;;;;;;;12.43;3.67;;;;;;;19.34;100.00;99478.75;5116548;28;20034;-79
2023/10/14 00:05:32;;;;;;;11.98;4.15;;;;;;;19.37;100.00;99489.94;5116828;28;20023;-80
2023/10/14 00:08:06;;;;;;;10.13;3.85;;;;;;;19.37;100.00;99475.47;5113149;28;20093;-80
2023/10/14 00:10:44;;;;;;;13.68;3.75;;;;;;;19.43;100.00;99476.06;5098035;28;20092;-81
2023/10/14 00:13:10;;;;;;;4.88;2.95;;;;;;;19.47;100.00;99470.66;5097558;28;20031;-81
2023/10/14 00:15:40;;;;;;;11.52;3.45;;;;;;;19.53;100.00;99473.38;5116088;28;20032;-79
2023/10/14 00:18:08;;;;;;;11.45;3.70;;;;;;;19.61;100.00;99470.50;5115907;28;20098;-79
2023/10/14 00:20:35;;;;;;;11.25;3.53;;;;;;;19.66;100.00;99481.16;5116076;28;20026;-79
2023/10/14 00:23:04;;;;;;;8.88;3.40;;;;;;;19.70;100.00;99473.63;5098851;28;20552;-79
2023/10/14 00:25:34;;;;;;;8.15;4.07;;;;;;;19.68;100.00;99461.81;5098940;28;20076;-80
2023/10/14 00:28:13;;;;;;;10.38;3.70;;;;;;;19.64;100.00;99444.03;5099553;28;20507;-80
2023/10/14 00:30:42;;;;;;;8.55;3.13;;;;;;;19.77;100.00;99460.47;5115290;28;20541;-79
2023/10/14 00:33:12;;;;;;;12.90;4.05;;;;;;;19.78;100.00;99447.53;5117620;28;20042;-78
2023/10/14 00:35:40;;;;;;;8.07;3.10;;;;;;;19.77;100.00;99448.88;5117169;28;20069;-79
2023/10/14 00:38:14;;;;;;;11.70;4.05;;;;;;;19.82;100.00;99454.47;5117083;28;20046;-80
2023/10/14 00:40:45;;;;;;;10.43;4.03;;;;;;;19.76;100.00;99442.28;5122524;28;20019;-80
2023/10/14 00:43:13;;;;;;;7.32;3.33;;;;;;;19.74;100.00;99441.34;5123252;28;20157;-81
2023/10/14 00:45:43;;;;;;;10.15;3.90;;;;;;;19.71;100.00;99436.72;5122770;28;20031;-79
2023/10/14 00:48:27;;;;;;;9.00;3.70;;;;;;;19.69;100.00;99443.06;5120745;28;20023;-79
2023/10/14 00:50:59;;;;;;;11.27;3.75;;;;;;;19.64;100.00;99443.25;5101407;28;20031;-79
2023/10/14 00:53:30;;;;;;;7.82;3.60;;;;;;;19.53;100.00;99430.69;5117528;28;20097;-80
2023/10/14 00:56:02;;;;;;;5.45;3.13;;;;;;;19.55;100.00;99444.59;5099473;28;20024;-80
2023/10/14 00:58:29;;;;;;;18.00;4.07;;;;;;;19.42;100.00;99421.56;5064601;28;20026;-80
2023/10/14 01:00:58;;;;;;;6.75;3.30;;;;;;;19.45;100.00;99432.81;5117474;28;20067;-78
2023/10/14 01:03:27;;;;;;;8.93;3.50;;;;;;;19.38;100.00;99427.75;5116350;28;20033;-79
2023/10/14 01:05:56;;;;;;;8.13;3.47;;;;;;;19.32;100.00;99417.69;5116041;28;20023;-79
2023/10/14 01:08:44;;;;;;;9.50;3.90;;;;;;;19.22;100.00;99408.78;5097212;28;20034;-79
2023/10/14 01:11:12;;;;;;;10.98;3.70;;;;;;;19.12;100.00;99390.38;5096627;28;20089;-79
2023/10/14 01:13:38;;;;;;;9.13;3.72;;;;;;;19.04;100.00;99381.69;5096419;28;20111;-79
2023/10/14 01:16:15;;;;;;;8.02;3.83;;;;;;;19.01;100.00;99390.75;5096533;28;20066;-79
2023/10/14 01:18:47;;;;;;;5.50;3.08;;;;;;;18.90;100.00;99379.50;5115223;28;20423;-78
2023/10/14 01:21:13;;;;;;;8.45;3.40;;;;;;;18.84;100.00;99376.00;5115264;28;20360;-78
2023/10/14 01:23:45;;;;;;;9.57;3.63;;;;;;;18.79;100.00;99374.84;5114908;28;20374;-78
2023/10/14 01:26:13;;;;;;;10.55;4.07;;;;;;;18.72;100.00;99371.94;5115513;28;20418;-80
2023/10/14 01:28:45;;;;;;;9.85;3.22;;;;;;;18.61;100.00;99349.88;5115197;28;20034;-81
2023/10/14 01:31:38;;;;;;;13.90;4.00;;;;;;;18.55;100.00;99347.16;5098719;28;20023;-79
2023/10/14 01:34:05;;;;;;;15.77;4.65;;;;;;;18.48;100.00;99342.09;5115617;28;20035;-79
2023/10/14 01:36:38;;;;;;;10.88;3.75;;;;;;;18.45;100.00;99336.69;5097612;28;20031;-79
2023/10/14 01:39:14;;;;;;;9.40;3.92;;;;;;;18.33;100.00;99330.44;5114719;28;20023;-78
2023/10/14 01:41:40;;;;;;;5.72;3.53;;;;;;;18.34;100.00;99329.13;5098153;28;20104;-78
2023/10/14 01:44:06;;;;;;;9.45;3.70;;;;;;;18.28;100.00;99325.56;5079849;28;20457;-80
2023/10/14 01:46:34;;;;;;;10.30;3.60;;;;;;;18.22;100.00;99325.00;5114763;28;20075;-79
2023/10/14 01:49:10;;;;;;;9.00;3.72;;;;;;;18.03;100.00;99307.16;5096598;28;20086;-79
2023/10/14 01:51:40;;;;;;;8.13;3.17;;;;;;;18.04;100.00;99306.56;5113999;28;20058;-78
2023/10/14 01:54:09;;;;;;;11.02;4.10;;;;;;;18.00;100.00;99317.72;5096230;28;20028;-77
2023/10/14 01:56:37;;;;;;;7.03;3.25;;;;;;;17.96;100.00;99308.66;5115469;28;20023;-78
2023/10/14 01:59:05;;;;;;;11.05;3.42;;;;;;;17.93;100.00;99315.53;5114632;28;20441;-77
2023/10/14 02:01:35;;;;;;;9.75;3.40;;;;;;;17.82;100.00;99299.31;5114117;28;20034;-78
2023/10/14 02:04:15;;;;;;;8.93;4.50;;;;;;;17.81;100.00;99300.66;5114113;28;20028;-77
2023/10/14 02:07:03;;;;;;;12.43;3.45;;;;;;;17.82;100.00;99304.31;5096515;28;20024;-77
2023/10/14 02:09:30;;;;;;;8.60;4.18;;;;;;;17.73;100.00;99291.13;5113792;28;20381;-78
2023/10/14 02:12:01;;;;;;;11.25;4.03;;;;;;;17.70;100.00;99294.41;5113865;28;20027;-78
2023/10/14 02:14:27;;;;;;;8.23;3.00;;;;;;;17.74;100.00;99309.25;5079185;28;20095;-79
2023/10/14 02:16:55;;;;;;;7.50;3.83;;;;;;;17.68;100.00;99294.22;5114440;28;20088;-79
2023/10/14 02:22:01;;;;;;;10.98;3.67;;;;;;;17.61;100.00;99289.91;5114941;28;20461;-78
2023/10/14 02:24:28;;;;;;;9.25;3.65;;;;;;;17.58;100.00;99285.28;5114594;28;20095;-77
2023/10/14 02:26:57;;;;;;;13.27;4.25;;;;;;;17.55;100.00;99277.72;5096295;28;20116;-80
2023/10/14 02:29:24;;;;;;;6.50;3.13;;;;;;;17.54;100.00;99286.97;5079364;28;20034;-79
2023/10/14 02:31:51;;;;;;;11.93;3.20;;;;;;;17.52;100.00;99278.09;5096236;28;20027;-77
2023/10/14 02:34:18;;;;;;;11.27;3.80;;;;;;;17.51;100.00;99283.09;5096646;28;20034;-79
2023/10/14 02:36:49;;;;;;;7.95;3.80;;;;;;;17.48;100.00;99281.34;5096378;28;20055;-77
2023/10/14 02:39:15;;;;;;;9.77;3.78;;;;;;;17.45;100.00;99282.47;5114341;28;20063;-77
2023/10/14 02:41:58;;;;;;;9.77;3.92;;;;;;;17.42;100.00;99289.38;5096008;28;20051;-76
2023/10/14 02:44:30;;;;;;;7.82;3.85;;;;;;;17.36;100.00;99285.84;5098789;28;20502;-78
2023/10/14 02:47:03;;;;;;;13.38;5.28;;;;;;;17.33;100.00;99286.97;5114152;28;20452;-80
2023/10/14 02:49:39;;;;;;;8.15;3.83;;;;;;;17.26;100.00;99279.03;5113667;28;20127;-79
2023/10/14 02:52:10;;;;;;;4.97;3.55;;;;;;;17.13;100.00;99267.56;5114479;28;20028;-78
2023/10/14 02:54:44;;;;;;;9.57;4.35;;;;;;;17.06;100.00;99260.38;5096785;28;20076;-78
2023/10/14 02:57:26;;;;;;;8.35;4.32;;;;;;;17.02;100.00;99265.72;5096078;28;20070;-78
2023/10/14 02:59:55;;;;;;;14.55;4.93;;;;;;;16.95;100.00;99267.19;5092132;28;20052;-78
2023/10/14 03:07:53;;;;;;;11.18;4.13;;;;;;;16.79;100.00;99264.75;5092319;28;20040;-79
2023/10/14 03:10:27;;;;;;;11.15;4.35;;;;;;;16.77;100.00;99265.28;5093418;28;20085;-78
2023/10/14 03:12:57;;;;;;;10.95;4.20;;;;;;;16.77;100.00;99265.28;5093314;28;20033;-77
2023/10/14 03:15:26;;;;;;;13.15;4.70;;;;;;;16.75;100.00;99267.97;5091988;28;20401;-80
2023/10/14 03:17:58;;;;;;;24.92;5.35;;;;;;;16.73;100.00;99275.63;5093870;28;20051;-78
2023/10/14 03:23:25;;;;;;;13.57;5.07;;;;;;;16.69;100.00;99287.53;5093719;28;20040;-78
2023/10/14 03:25:53;;;;;;;12.05;4.78;;;;;;;16.65;100.00;99264.00;5093513;28;20032;-79
2023/10/14 03:28:27;;;;;;;11.60;5.07;;;;;;;16.65;100.00;99263.25;5075484;28;20405;-80
2023/10/14 03:30:55;;;;;;;8.27;4.03;;;;;;;16.69;100.00;99270.22;5093416;28;20077;-78
2023/10/14 03:33:32;;;;;;;9.80;4.72;;;;;;;16.73;100.00;99267.75;5075274;28;20024;-78
2023/10/14 03:36:08;;;;;;;6.97;3.85;;;;;;;16.73;100.00;99256.22;5093924;28;20035;-80
2023/10/14 03:38:41;;;;;;;9.43;4.03;;;;;;;16.82;100.00;99266.50;5093884;28;20024;-79
2023/10/14 03:41:15;;;;;;;18.20;4.15;;;;;;;16.84;100.00;99247.28;5092460;28;20522;-77
2023/10/14 03:46:35;;;;;;;14.10;5.70;;;;;;;16.83;100.00;99257.28;5093130;28;20043;-79
2023/10/14 03:49:06;;;;;;;10.68;5.03;;;;;;;16.83;100.00;99259.41;5076405;28;20362;-77
2023/10/14 03:51:35;;;;;;;11.85;4.60;;;;;;;16.79;100.00;99265.53;5091764;28;20461;-79
2023/10/14 03:54:24;;;;;;;15.95;5.57;;;;;;;16.78;100.00;99266.06;5091366;28;20119;-77
2023/10/14 03:57:06;;;;;;;9.85;4.13;;;;;;;16.71;100.00;99250.22;5091091;28;20048;-78
2023/10/14 03:59:38;;;;;;;11.38;5.03;;;;;;;16.79;100.00;99251.09;5102661;28;20051;-78
2023/10/14 04:02:06;;;;;;;13.98;4.72;;;;;;;16.81;100.00;99244.75;5078207;28;20032;-78
2023/10/14 04:04:57;;;;;;;11.63;5.85;;;;;;;16.87;100.00;99240.38;5112568;28;20058;-80
2023/10/14 04:07:40;;;;;;;14.38;4.93;;;;;;;16.94;100.00;99250.47;5111450;28;20041;-79
2023/10/14 04:10:22;;;;;;;11.55;5.20;;;;;;;16.97;100.00;99240.66;5092949;28;20115;-80
2023/10/14 04:13:04;;;;;;;12.98;4.53;;;;;;;17.04;100.00;99236.31;5111343;28;20106;-79
2023/10/14 04:15:53;;;;;;;11.95;5.15;;;;;;;17.03;100.00;99214.53;5113308;28;20039;-77
2023/10/14 04:18:24;;;;;;;10.82;5.72;;;;;;;17.11;100.00;99207.50;5113192;28;20127;-79
2023/10/14 04:21:06;;;;;;;13.02;5.13;;;;;;;17.06;100.00;99202.63;5114043;28;20019;-79
2023/10/14 04:23:38;;;;;;;13.15;6.63;;;;;;;17.13;100.00;99198.28;5097487;28;20106;-79
2023/10/14 04:26:11;;;;;;;14.25;5.40;;;;;;;17.18;100.00;99197.34;5113465;28;20036;-78
2023/10/14 04:28:53;;;;;;;9.45;4.80;;;;;;;17.21;100.00;99196.97;5112569;28;20035;-78
2023/10/14 04:31:26;;;;;;;17.35;4.97;;;;;;;17.22;100.00;99181.22;5096679;28;20460;-79
2023/10/14 04:33:54;;;;;;;11.73;4.88;;;;;;;17.28;100.00;99181.06;5095864;28;20038;-78
2023/10/14 04:36:36;;;;;;;14.40;4.32;;;;;;;17.32;100.00;99170.69;5094921;28;20548;-79
2023/10/14 04:39:13;;;;;;;13.43;3.88;;;;;;;17.40;100.00;99164.94;5114731;28;20047;-78
2023/10/14 04:42:03;;;;;;;8.15;4.07;;;;;;;17.53;100.00;99176.44;5116572;28;20106;-79
2023/10/14 04:44:44;;;;;;;12.63;4.43;;;;;;;17.64;100.00;99184.75;5116641;28;20031;-78
2023/10/14 04:47:50;;;;;;;6.60;3.70;;;;;;;17.72;100.00;99184.81;5116452;28;20038;-78
2023/10/14 04:50:11;;;;;;;11.65;4.50;;;;;;;17.84;100.00;99183.91;5113084;28;20066;-78
2023/10/14 04:52:38;;;;;;;11.88;3.85;;;;;;;17.98;100.00;99193.19;5118874;28;20050;-77
2023/10/14 04:55:32;;;;;;;9.20;4.30;;;;;;;18.05;100.00;99188.78;5110283;28;20403;-78
2023/10/14 05:00:49;;;;;;;9.68;4.13;;;;;;;18.08;100.00;99167.44;5096682;28;20488;-77
2023/10/14 05:03:21;;;;;;;8.18;3.45;;;;;;;18.20;100.00;99174.38;5077770;28;20036;-80
2023/10/14 05:06:30;;;;;;;11.05;3.53;;;;;;;18.23;100.00;99179.00;5094163;28;20019;-87
2023/10/14 05:08:46;;;;;;;8.98;4.32;;;;;;;18.27;100.00;99173.66;5102441;28;20079;-79
2023/10/14 05:11:18;;;;;;;8.90;3.58;;;;;;;18.38;100.00;99173.31;5089445;28;20051;-79
2023/10/14 05:13:53;;;;;;;7.97;3.75;;;;;;;18.53;100.00;99181.25;5082038;28;20055;-79
2023/10/14 05:16:26;;;;;;;9.00;3.58;;;;;;;18.62;100.00;99193.00;5079990;28;20481;-80
2023/10/14 05:19:00;;;;;;;9.40;3.67;;;;;;;18.73;100.00;99191.09;5095150;28;20020;-81
2023/10/14 05:24:28;;;;;;;10.15;4.05;;;;;;;19.06;100.00;99189.97;5040800;28;20037;-78
2023/10/14 05:27:00;;;;;;;7.35;3.40;;;;;;;19.22;100.00;99188.63;5096090;28;20028;-78
2023/10/14 05:29:27;;;;;;;8.18;3.40;;;;;;;19.38;100.00;99195.19;5095259;28;20028;-77
2023/10/14 05:32:04;;;;;;;6.70;3.25;;;;;;;19.50;100.00;99191.31;5077737;28;20032;-80
2023/10/14 05:34:32;;;;;;;18.65;4.40;;;;;;;19.65;100.00;99204.22;5078915;28;20097;-79
2023/10/14 05:36:57;;;;;;;8.98;3.70;;;;;;;19.69;100.00;99193.75;5095342;28;20040;-78
2023/10/14 05:39:25;;;;;;;10.85;3.70;;;;;;;19.69;100.00;99185.06;5077800;28;20032;-82
2023/10/14 05:41:58;;;;;;;10.70;3.67;;;;;;;19.78;100.00;99189.47;5095909;28;20028;-81
2023/10/14 05:44:47;;;;;;;10.73;3.72;;;;;;;19.83;100.00;99200.09;5078347;28;20081;-82
2023/10/14 05:47:17;;;;;;;10.55;4.20;;;;;;;19.68;100.00;99189.31;5096261;28;20024;-82
2023/10/14 05:49:44;;;;;;;6.65;3.97;;;;;;;19.86;100.00;99210.50;5076135;28;20036;-81
2023/10/14 05:52:18;;;;;;;16.67;5.68;;;;;;;19.93;100.00;99216.34;5076840;28;20077;-81
2023/10/14 05:54:45;;;;;;;9.85;4.32;;;;;;;19.93;100.00;99222.13;5095450;28;20028;-83
2023/10/14 05:57:11;;;;;;;13.82;5.10;;;;;;;19.92;100.00;99220.56;5095405;28;20126;-81
2023/10/14 05:59:38;;;;;;;10.73;4.93;;;;;;;19.96;100.00;99217.28;5095692;28;20072;-83
2023/10/14 06:02:07;;;;;;;8.15;3.75;;;;;;;19.94;100.00;99222.91;5096181;28;20024;-83
2023/10/14 06:04:40;;;;;;;6.95;3.85;;;;;;;19.79;100.00;99197.59;5078474;28;20024;-82
2023/10/14 06:07:11;;;;;;;7.68;2.97;;;;;;;19.94;100.00;99212.09;5095687;28;20108;-81
2023/10/14 06:09:38;;;;;;;8.80;3.35;;;;;;;20.00;100.00;99225.59;5094540;28;20028;-81
2023/10/14 06:12:06;;;;;;;6.78;3.03;;;;;;;20.04;100.00;99223.84;5094547;28;20546;-81
2023/10/14 06:14:47;;;;;;;9.52;3.63;;;;;;;20.07;100.00;99219.75;5094801;28;20043;-80
2023/10/14 06:17:14;;;;;;;8.13;3.72;;;;;;;20.09;100.00;99222.84;5094681;28;20016;-78
2023/10/14 06:19:39;;;;;;;9.80;3.50;;;;;;;20.14;100.00;99232.69;5059782;28;20408;-78
2023/10/14 06:22:13;;;;;;;10.55;3.45;;;;;;;20.11;100.00;99225.16;5077599;28;20036;-82
2023/10/14 06:24:42;;;;;;;11.10;3.60;;;;;;;20.17;100.00;99243.88;5077526;28;20032;-80
2023/10/14 06:27:09;;;;;;;10.57;3.10;;;;;;;20.13;100.00;99231.16;5077486;28;20391;-82
2023/10/14 06:29:39;;;;;;;5.70;3.35;;;;;;;20.09;100.00;99222.84;5099961;28;20590;-81
2023/10/14 06:32:05;;;;;;;7.45;3.45;;;;;;;20.16;100.00;99239.44;5094764;28;20043;-79
2023/10/14 06:34:35;;;;;;;7.22;3.47;;;;;;;20.20;100.00;99236.16;5092638;28;20044;-79
2023/10/14 06:37:02;;;;;;;8.98;3.17;;;;;;;20.21;100.00;99238.44;5060136;28;20043;-81
2023/10/14 06:39:38;;;;;;;8.52;3.33;;;;;;;20.21;100.00;99235.56;5099267;28;20024;-82
2023/10/14 06:42:22;;;;;;;13.23;3.78;;;;;;;20.19;100.00;99237.50;5096747;28;20027;-79
2023/10/14 06:44:57;;;;;;;11.77;3.28;;;;;;;20.20;100.00;99224.56;5095496;28;20030;-82
2023/10/14 06:47:23;;;;;;;7.57;3.03;;;;;;;20.19;100.00;99226.69;5100420;28;20028;-83
2023/10/14 06:49:50;;;;;;;5.63;2.97;;;;;;;20.24;100.00;99227.81;5097472;28;20028;-83
2023/10/14 06:52:18;;;;;;;7.50;3.88;;;;;;;20.11;100.00;99207.75;5095582;28;20039;-81
2023/10/14 06:54:45;;;;;;;7.80;3.35;;;;;;;20.23;100.00;99232.06;5095210;28;20035;-80
2023/10/14 06:57:11;;;;;;;11.10;3.47;;;;;;;20.24;100.00;99237.28;5076294;28;20103;-79
2023/10/14 06:59:37;;;;;;;10.10;2.97;;;;;;;20.24;100.00;99243.09;5091159;28;20430;-78
2023/10/14 07:02:05;;;;;;;9.27;3.35;;;;;;;20.27;100.00;99246.94;5093100;28;20032;-77
2023/10/14 07:04:37;;;;;;;10.70;3.42;;;;;;;20.22;100.00;99234.19;5092961;28;20050;-78
2023/10/14 07:07:08;;;;;;;5.68;2.75;;;;;;;20.27;100.00;99232.44;5093441;28;20032;-77
2023/10/14 07:09:37;;;;;;;8.52;3.55;;;;;;;20.28;100.00;99234.75;5075993;28;20526;-76
2023/10/14 07:12:13;;;;;;;6.40;2.95;;;;;;;20.27;100.00;99233.22;5058784;28;20031;-79
2023/10/14 07:14:51;;;;;;;6.72;3.80;;;;;;;20.23;100.00;99221.25;5078297;28;20040;-79
2023/10/14 07:17:22;;;;;;;10.35;3.33;;;;;;;20.27;100.00;99233.22;5093068;28;20063;-77
2023/10/14 07:19:48;;;;;;;8.55;3.60;;;;;;;20.29;100.00;99218.13;5093500;28;20024;-78
2023/10/14 07:22:20;;;;;;;12.52;3.60;;;;;;;20.22;100.00;99216.00;5058180;28;20024;-76
2023/10/14 07:24:46;;;;;;;8.60;3.67;;;;;;;20.28;100.00;99222.38;5059067;28;20059;-76
2023/10/14 07:27:13;;;;;;;10.18;4.05;;;;;;;20.30;100.00;99234.19;5075109;28;20031;-78
2023/10/14 07:29:39;;;;;;;18.25;4.05;;;;;;;20.26;100.00;99228.75;5092989;28;20056;-76
2023/10/14 07:32:05;;;;;;;10.68;3.80;;;;;;;20.34;100.00;99231.63;5075009;28;20044;-77
2023/10/14 07:34:31;;;;;;;6.10;3.03;;;;;;;20.38;100.00;99223.28;5090961;28;20066;-79
2023/10/14 07:36:58;;;;;;;8.68;3.50;;;;;;;20.47;100.00;99230.59;5074890;28;20426;-78
2023/10/14 07:39:28;;;;;;;14.07;4.63;;;;;;;20.56;100.00;99222.03;5092970;28;20368;-78
2023/10/14 07:41:54;;;;;;;8.20;3.70;;;;;;;20.65;100.00;99214.81;5090635;28;20447;-79
2023/10/14 07:44:24;;;;;;;9.70;4.18;;;;;;;20.84;100.00;99215.13;5058113;28;20028;-77
2023/10/14 07:46:52;;;;;;;14.65;4.18;;;;;;;20.97;100.00;99211.13;5074896;28;20040;-79
2023/10/14 07:49:19;;;;;;;9.82;3.97;;;;;;;21.09;100.00;99209.31;5075071;28;20028;-77
2023/10/14 07:51:46;;;;;;;7.30;3.72;;;;;;;21.31;100.00;99202.50;5093144;28;20120;-78
2023/10/14 07:54:18;;;;;;;10.20;3.35;;;;;;;21.47;100.00;99201.03;5092342;28;20024;-78
2023/10/14 07:56:53;;;;;;;12.50;3.50;;;;;;;21.55;100.00;99206.75;5075117;28;20032;-82
2023/10/14 07:59:20;;;;;;;6.82;4.25;;;;;;;21.50;100.00;99182.38;5093140;28;20040;-85
2023/10/14 08:01:48;;;;;;;8.88;3.97;;;;;;;21.55;100.00;99195.13;5098591;28;20028;-79
2023/10/14 08:04:18;;;;;;;10.80;4.38;;;;;;;21.58;100.00;99193.94;5095229;28;20136;-79
2023/10/14 08:06:46;;;;;;;9.90;4.10;;;;;;;21.72;100.00;99197.28;5076715;28;20020;-78
2023/10/14 08:09:32;;;;;;;9.38;4.07;;;;;;;21.92;100.00;99193.97;5088881;28;20024;-78
2023/10/14 08:12:03;;;;;;;9.77;3.53;;;;;;;22.09;100.00;99179.38;5060485;28;20438;-79
2023/10/14 08:14:30;;;;;;;8.03;3.67;;;;;;;22.41;100.00;99200.91;5064879;28;20105;-81
2023/10/14 08:16:57;;;;;;;7.53;3.95;;;;;;;22.78;100.00;99195.91;5084209;28;20461;-78
2023/10/14 08:19:26;;;;;;;8.75;3.83;;;;;;;23.40;100.00;99190.63;5097048;28;20060;-79
2023/10/14 08:21:52;;;;;;;8.25;3.63;;;;;;;23.71;100.00;99174.13;5102694;28;20035;-80
2023/10/14 08:24:20;;;;;;;12.02;3.28;;;;;;;23.71;100.00;99177.81;5083597;28;20028;-79
2023/10/14 08:26:49;;;;;;;6.10;3.97;;;;;;;23.66;100.00;99192.69;5077421;28;20063;-80
2023/10/14 08:29:19;;;;;;;8.95;4.30;;;;;;;23.72;100.00;99190.25;5079214;28;20090;-78
2023/10/14 08:31:51;;;;;;;18.25;4.07;;;;;;;23.73;100.00;99189.63;5076475;28;20158;-80
2023/10/14 08:34:17;;;;;;;6.32;3.80;;;;;;;23.70;100.00;99182.09;5097115;28;20333;-78
2023/10/14 08:36:44;;;;;;;12.20;3.28;;;;;;;23.75;100.00;99192.69;5105138;28;20035;-81
2023/10/14 08:39:11;;;;;;;10.45;4.03;;;;;;;23.91;100.00;99192.41;5077187;28;20020;-78
2023/10/14 08:41:37;;;;;;;10.27;3.30;;;;;;;24.11;100.00;99203.47;5092439;28;20020;-80
2023/10/14 08:44:12;;;;;;;10.23;4.00;;;;;;;24.26;100.00;99196.56;5094600;28;20055;-80
2023/10/14 08:46:40;;;;;;;6.70;3.40;;;;;;;24.26;100.00;99195.78;5097541;28;20049;-80
2023/10/14 08:49:08;;;;;;;7.15;3.67;;;;;;;24.21;100.00;99195.50;5096542;28;20032;-80
2023/10/14 08:51:35;;;;;;;6.72;3.10;;;;;;;24.30;100.00;99208.53;5055671;28;20079;-82
2023/10/14 08:54:02;;;;;;;6.10;3.45;;;;;;;24.42;100.00;99208.69;5059782;28;20036;-81
2023/10/14 08:56:34;;;;;;;9.85;3.67;;;;;;;24.53;100.00;99200.06;5053025;28;20032;-83
2023/10/14 08:59:00;;;;;;;14.05;4.25;;;;;;;24.82;100.00;99205.81;5104985;28;20050;-82
2023/10/14 09:01:27;;;;;;;7.90;3.72;;;;;;;25.05;100.00;99211.91;5109741;28;20415;-86
2023/10/14 09:03:52;;;;;;;10.55;3.53;;;;;;;25.20;100.00;99202.00;5095298;28;20147;-85
2023/10/14 09:06:19;;;;;;;7.78;3.67;;;;;;;25.18;100.00;99187.25;5080489;28;20063;-82
2023/10/14 09:09:09;;;;;;;8.20;3.75;;;;;;;25.29;99.08;99209.94;5101281;28;20053;-84
2023/10/14 09:11:36;;;;;;;12.77;4.43;;;;;;;25.21;99.81;99200.59;5104241;28;20028;-83
2023/10/14 09:14:04;;;;;;;7.25;3.40;;;;;;;25.38;99.18;99208.38;5115138;28;20038;-79
2023/10/14 09:16:32;;;;;;;10.15;3.90;;;;;;;25.29;97.73;99192.38;5070186;28;20047;-83
2023/10/14 09:19:00;;;;;;;8.65;4.35;;;;;;;25.34;98.35;99214.69;5085977;28;20039;-79
2023/10/14 09:21:31;;;;;;;7.72;4.00;;;;;;;25.35;99.40;99222.06;5086543;28;20036;-78
2023/10/14 09:24:08;;;;;;;9.98;3.92;;;;;;;25.23;99.88;99214.63;5121569;28;20039;-79
2023/10/14 09:26:43;;;;;;;6.55;3.90;;;;;;;25.13;99.49;99220.50;5105465;28;20035;-79
2023/10/14 09:29:29;;;;;;;10.93;4.00;;;;;;;24.91;100.00;99222.59;5083461;28;20027;-86
2023/10/14 09:31:59;;;;;;;8.05;3.80;;;;;;;25.00;100.00;99230.53;5096521;28;20024;-83
2023/10/14 09:34:27;;;;;;;11.05;3.97;;;;;;;24.99;100.00;99219.47;5099543;28;20101;-80
2023/10/14 09:36:55;;;;;;;10.73;3.42;;;;;;;25.08;100.00;99218.69;5109939;28;20042;-88
2023/10/14 09:39:28;;;;;;;10.73;4.18;;;;;;;25.17;100.00;99220.03;5095970;28;20008;-88
2023/10/14 09:41:54;;;;;;;10.40;3.80;;;;;;;25.14;100.00;99215.41;5098847;28;20063;-88
2023/10/14 09:44:21;;;;;;;6.85;4.22;;;;;;;25.24;100.00;99213.97;5060728;28;20389;-89
2023/10/14 09:46:52;;;;;;;9.80;3.58;;;;;;;25.32;100.00;99220.41;5090081;28;20024;-87
2023/10/14 09:49:22;;;;;;;5.90;4.03;;;;;;;25.41;100.00;99221.75;5064755;28;20039;-89
2023/10/14 09:51:48;;;;;;;7.60;4.25;;;;;;;25.41;100.00;99216.66;5082118;28;20055;-89
2023/10/14 09:54:16;;;;;;;10.52;4.45;;;;;;;25.33;100.00;99215.34;5069414;28;20031;-84
2023/10/14 09:56:43;;;;;;;7.97;4.72;;;;;;;25.32;100.00;99208.72;5065157;28;20507;-80
2023/10/14 09:59:10;;;;;;;8.40;3.72;;;;;;;25.32;100.00;99202.88;5103160;28;20044;-80
2023/10/14 10:01:37;;;;;;;12.48;3.67;;;;;;;25.32;100.00;99205.78;5097212;28;20061;-79
2023/10/14 10:04:15;;;;;;;6.03;4.10;;;;;;;25.23;100.00;99200.75;5080184;28;20503;-82
2023/10/14 10:07:11;;;;;;;16.80;4.65;;;;;;;25.17;100.00;99202.47;5091934;28;20035;-83
2023/10/14 10:10:01;;;;;;;6.13;4.10;;;;;;;25.18;100.00;99206.94;5098569;28;20028;-85
2023/10/14 10:12:34;;;;;;;7.10;3.85;;;;;;;25.21;100.00;99200.59;5099852;28;20031;-84
2023/10/14 10:15:06;;;;;;;7.65;4.20;;;;;;;25.22;100.00;99192.59;5112210;28;20055;-84
2023/10/14 10:17:33;;;;;;;9.05;4.13;;;;;;;25.19;100.00;99208.44;5081583;28;20043;-86
2023/10/14 10:20:13;;;;;;;10.15;3.92;;;;;;;25.19;100.00;99194.59;5098435;28;20408;-83
2023/10/14 10:22:50;;;;;;;8.48;3.65;;;;;;;25.29;100.00;99212.09;5101486;28;20023;-84
2023/10/14 10:25:36;;;;;;;7.78;3.30;;;;;;;25.40;100.00;99203.41;5114079;28;20031;-81
2023/10/14 10:28:27;;;;;;;8.90;4.35;;;;;;;25.62;100.00;99200.56;5085424;28;20122;-82
2023/10/14 10:30:54;;;;;;;10.93;3.63;;;;;;;25.67;100.00;99173.88;5096898;28;20071;-81
2023/10/14 10:33:24;;;;;;;7.13;3.33;;;;;;;25.65;100.00;99199.28;5081117;28;20035;-84
2023/10/14 10:36:03;;;;;;;12.20;3.90;;;;;;;25.59;100.00;99208.41;5093686;28;20028;-83
2023/10/14 10:38:36;;;;;;;10.98;4.57;;;;;;;25.59;100.00;99196.72;5090917;28;20020;-83
2023/10/14 10:41:19;;;;;;;12.20;4.70;;;;;;;25.50;100.00;99206.31;5075918;28;20028;-83
2023/10/14 10:43:47;;;;;;;6.38;3.83;;;;;;;25.34;100.00;99226.38;5094978;28;20024;-83
2023/10/14 10:46:37;;;;;;;10.55;4.40;;;;;;;25.00;100.00;99223.94;5069963;28;20036;-81
2023/10/14 10:49:12;;;;;;;9.77;4.43;;;;;;;24.65;100.00;99215.56;5110335;28;20037;-77
2023/10/14 10:51:57;;;;;;;5.82;3.78;;;;;;;24.32;100.00;99216.69;5093185;28;20036;-78
2023/10/14 10:54:32;;;;;;;8.43;4.30;;;;;;;24.08;100.00;99221.44;5092209;28;20032;-80
2023/10/14 10:57:00;;;;;;;10.88;4.05;;;;;;;23.87;100.00;99232.94;5088982;28;20384;-80
2023/10/14 10:59:27;;;;;;;7.20;4.57;;;;;;;23.64;100.00;99250.91;5058548;28;20049;-81
2023/10/14 11:01:56;;;;;;;9.40;3.92;;;;;;;23.44;100.00;99258.03;5074340;28;20060;-80
2023/10/14 11:04:23;;;;;;;13.75;4.20;;;;;;;23.11;100.00;99275.09;5074925;28;20016;-82
2023/10/14 11:06:56;;;;;;;7.03;4.20;;;;;;;22.67;100.00;99275.88;5067431;28;20044;-78
2023/10/14 11:09:22;;;;;;;9.20;3.85;;;;;;;22.44;100.00;99314.03;5069119;28;20132;-81
2023/10/14 11:11:54;;;;;;;7.03;3.58;;;;;;;22.22;100.00;99320.13;5074647;28;20075;-79
2023/10/14 11:14:22;;;;;;;7.45;3.95;;;;;;;21.95;100.00;99331.63;5072486;28;20418;-82
2023/10/14 11:16:57;;;;;;;7.57;3.72;;;;;;;21.67;100.00;99336.53;5088814;28;20028;-77
2023/10/14 11:19:26;;;;;;;9.23;3.80;;;;;;;21.48;100.00;99344.25;5077536;28;20478;-79
2023/10/14 11:21:52;;;;;;;6.70;3.55;;;;;;;21.30;100.00;99351.31;5068721;28;20057;-80
2023/10/14 11:24:22;;;;;;;6.43;3.63;;;;;;;21.11;100.00;99343.13;5073729;28;20104;-80
2023/10/14 11:26:50;;;;;;;6.72;3.58;;;;;;;20.99;100.00;99360.22;5081979;28;20036;-83
2023/10/14 11:29:16;;;;;;;7.80;4.30;;;;;;;20.81;100.00;99359.34;5053234;28;20040;-84
2023/10/14 11:31:45;;;;;;;8.07;3.90;;;;;;;20.66;100.00;99368.09;5067228;28;20028;-83
2023/10/14 11:34:11;;;;;;;13.30;4.93;;;;;;;20.68;100.00;99391.53;5068979;28;20032;-83
2023/10/14 11:36:41;;;;;;;8.18;3.60;;;;;;;20.56;100.00;99383.81;5052363;28;20163;-84
2023/10/14 11:39:12;;;;;;;13.10;3.90;;;;;;;20.47;100.00;99391.00;5084580;28;20060;-82
2023/10/14 11:41:39;;;;;;;;;;;;;;;20.38;100.00;99403.22;5087645;28;20043;-84
2023/10/14 11:44:05;;;;;;;7.90;3.50;;;;;;;20.30;100.00;99405.38;5094515;28;19912;-79
2023/10/14 11:46:38;;;;;;;5.18;3.33;;;;;;;20.21;100.00;99414.66;5075032;28;20098;-81
2023/10/14 11:49:09;;;;;;;6.03;3.40;;;;;;;20.13;100.00;99422.59;5085197;28;20029;-83
2023/10/14 11:51:37;;;;;;;4.60;2.63;;;;;;;20.05;100.00;99428.44;5093317;28;20036;-82
2023/10/14 11:54:03;;;;;;;6.95;2.60;;;;;;;19.88;100.00;99422.41;5086203;28;20024;-84
2023/10/14 11:56:36;;;;;;;4.28;2.10;;;;;;;19.84;100.00;99422.00;5085262;28;20125;-85
2023/10/14 11:59:04;;;;;;;2.38;2.13;;;;;;;19.81;100.00;99446.34;5088823;28;20505;-84
2023/10/14 12:01:35;;;;;;;3.22;2.03;;;;;;;19.53;100.00;99448.06;5093128;28;20035;-81